Temora Agricultural, New South Wales

7:49 AM AEST on September 03, 2015 (GMT +1000)
Wagga Wagga | | Change Station
CLOSE
Current Station
Airport
Location: Wagga Wagga Airport,
Elevation: 699 ft
Nearby Weather Stations

Elev 699 ft 35.16 °S, 147.46 °E | Updated 19 minutes ago

Light Drizzle
Light Drizzle
50 °F
Feels Like 50 °F
N
9
Wind Variable Wind from NW

Today
High -- | Low -- °F
--% Chance of Precip.
Yesterday
High -- | Low -- °F
Precip. -- in
6:27 AM 5:52 PM
Waning Gibbous, 77% visible
Pressure 29.71 in
Visibility 4.3 miles
Clouds Mostly Cloudy 200 ft
Mostly Cloudy 600 ft
Dew Point 50 °F
Humidity 100%
Rainfall 0.00 in
Snow Depth Not available.
UV 0 out of 12
Pollen Not available.
Air Quality Not available.
Flu Activity Not available.
SPECI YSWG 022130Z 31008KT 7000 -DZ BKN002 BKN006 10/10 Q1006
Pressure 29.71 in
Visibility 4.3 miles
Clouds Mostly Cloudy 200 ft
Mostly Cloudy 600 ft
Dew Point 50 °F
Humidity 100%
Rainfall 0.00 in
Snow Depth Not available.
UV 0 out of 12
Pollen Not available.
Air Quality Not available.
Flu Activity Not available.
SPECI YSWG 022130Z 31008KT 7000 -DZ BKN002 BKN006 10/10 Q1006

10-Day Weather Forecast

×

Almanac

Astronomy

Sep. 03, 2015 Rise Set
Actual Time
Civil Twilight
Nautical Twilight
Astronomical Twilight
Moon
Length of Visible Light
Length of Day
Tomorrow will be .
, % of the Moon is Illuminated

Today's Extremes

Country Highs Country Lows

Community

WunderPhotos

Upload Photos

1,851,818 photos uploaded!

WunderBlogs® & News

Nearby

Air Quality

  Air Quality AQ Index Pollutant
Not available.

Snow Depth

Station Depth Elevation

Earthquake Activity

City Distance Mag. Time & Date
Minimum magnitude displayed is 2.5.

Coastal Water Temperatures

Place Temperature

Stations

Nearby Weather Stations

Station Location Temp. Windchill Dew Point Humidity Wind Precip. Elev Updated Type